createdAt,value
2023-05-14T00:00:16.764Z,1019.78
2023-05-14T00:01:17.127Z,1019.77
2023-05-14T00:02:17.602Z,1019.75
2023-05-14T00:03:17.935Z,1019.78
2023-05-14T00:04:18.356Z,1019.74
2023-05-14T00:05:18.654Z,1019.73
2023-05-14T00:06:18.944Z,1019.73
2023-05-14T00:07:19.312Z,1019.73
2023-05-14T00:08:19.681Z,1019.72
2023-05-14T00:09:20.068Z,1019.68
2023-05-14T00:10:20.512Z,1019.72
2023-05-14T00:11:20.776Z,1019.70
2023-05-14T00:12:21.158Z,1019.66
2023-05-14T00:13:21.490Z,1019.69
2023-05-14T00:14:21.907Z,1019.64
2023-05-14T00:15:22.214Z,1019.61
2023-05-14T00:16:22.650Z,1019.61
2023-05-14T00:17:22.945Z,1019.62
2023-05-14T00:18:23.348Z,1019.60
2023-05-14T00:19:23.721Z,1019.61
2023-05-14T00:20:24.241Z,1019.53
2023-05-14T00:21:24.414Z,1019.58
2023-05-14T00:22:24.775Z,1019.57
2023-05-14T00:23:25.149Z,1019.59
2023-05-14T00:24:25.530Z,1019.59
2023-05-14T00:25:25.982Z,1019.57
2023-05-14T00:26:26.230Z,1019.57
2023-05-14T00:27:26.592Z,1019.56
2023-05-14T00:28:26.956Z,1019.53
2023-05-14T00:29:27.314Z,1019.53
2023-05-14T00:30:27.736Z,1019.51
2023-05-14T00:31:28.130Z,1019.53
2023-05-14T00:32:28.438Z,1019.52
2023-05-14T00:33:28.777Z,1019.50
2023-05-14T00:34:29.184Z,1019.53
2023-05-14T00:35:29.544Z,1019.50
2023-05-14T00:36:29.891Z,1019.44
2023-05-14T00:37:30.268Z,1019.46
2023-05-14T00:38:30.616Z,1019.44
2023-05-14T00:39:30.960Z,1019.43
2023-05-14T00:40:31.294Z,1019.46
2023-05-14T00:41:31.657Z,1019.45
2023-05-14T00:42:32.003Z,1019.36
2023-05-14T00:43:32.350Z,1019.41
2023-05-14T00:44:32.754Z,1019.41
2023-05-14T00:45:33.063Z,1019.42
2023-05-14T00:46:33.512Z,1019.44
2023-05-14T00:47:33.864Z,1019.46
2023-05-14T00:48:34.159Z,1019.44
2023-05-14T00:49:34.545Z,1019.45
2023-05-14T00:50:34.848Z,1019.43
2023-05-14T00:51:35.200Z,1019.46
2023-05-14T00:52:35.590Z,1019.46
2023-05-14T00:53:35.885Z,1019.47
2023-05-14T00:54:36.277Z,1019.46
2023-05-14T00:55:36.620Z,1019.42
2023-05-14T00:56:36.960Z,1019.41
2023-05-14T00:57:37.317Z,1019.40
2023-05-14T00:58:37.662Z,1019.41
2023-05-14T00:59:38.057Z,1019.42
2023-05-14T01:00:38.377Z,1019.38
2023-05-14T01:01:38.720Z,1019.37
2023-05-14T01:02:39.133Z,1019.32
2023-05-14T01:03:39.527Z,1019.37
2023-05-14T01:04:39.770Z,1019.33
2023-05-14T01:05:40.125Z,1019.34
2023-05-14T01:06:40.494Z,1019.38
2023-05-14T01:07:40.835Z,1019.40
2023-05-14T01:08:41.217Z,1019.43
2023-05-14T01:09:41.582Z,1019.47
2023-05-14T01:10:41.891Z,1019.48
2023-05-14T01:11:42.248Z,1019.41
2023-05-14T01:12:42.576Z,1019.37
2023-05-14T01:13:42.912Z,1019.33
2023-05-14T01:14:43.339Z,1019.28
2023-05-14T01:15:43.634Z,1019.32
2023-05-14T01:16:44.044Z,1019.31
2023-05-14T01:17:44.382Z,1019.30
2023-05-14T01:18:44.680Z,1019.29
2023-05-14T01:19:45.041Z,1019.35
2023-05-14T01:20:45.380Z,1019.42
2023-05-14T01:21:45.732Z,1019.42
2023-05-14T01:22:46.094Z,1019.41
2023-05-14T01:23:46.453Z,1019.40
2023-05-14T01:24:46.827Z,1019.45
2023-05-14T01:25:47.186Z,1019.32
2023-05-14T01:26:47.589Z,1019.28
2023-05-14T01:27:47.877Z,1019.23
2023-05-14T01:28:48.239Z,1019.22
2023-05-14T01:29:48.613Z,1019.19
2023-05-14T01:30:48.984Z,1019.18
2023-05-14T01:31:49.343Z,1019.17
2023-05-14T01:32:49.802Z,1019.20
2023-05-14T01:33:50.029Z,1019.26
2023-05-14T01:34:50.392Z,1019.23
2023-05-14T01:35:50.766Z,1019.25
2023-05-14T01:36:51.131Z,1019.36
2023-05-14T01:37:51.459Z,1019.42
2023-05-14T01:38:51.863Z,1019.39
2023-05-14T01:39:52.168Z,1019.45
2023-05-14T01:40:52.546Z,1019.40
2023-05-14T01:41:52.906Z,1019.43
2023-05-14T01:42:53.266Z,1019.36
2023-05-14T01:43:53.616Z,1019.40
2023-05-14T01:44:53.957Z,1019.41
2023-05-14T01:45:54.460Z,1019.44
2023-05-14T01:46:54.664Z,1019.42
2023-05-14T01:47:55.041Z,1019.41
2023-05-14T01:48:55.425Z,1019.41
2023-05-14T01:49:55.797Z,1019.35
2023-05-14T01:50:56.088Z,1019.38
2023-05-14T01:51:56.441Z,1019.44
2023-05-14T01:52:57.010Z,1019.40
2023-05-14T01:53:57.150Z,1019.39
2023-05-14T01:54:57.506Z,1019.35
2023-05-14T01:55:57.855Z,1019.38
2023-05-14T01:56:58.189Z,1019.34
2023-05-14T01:57:58.636Z,1019.41
2023-05-14T01:58:58.885Z,1019.36
2023-05-14T01:59:59.257Z,1019.39
2023-05-14T02:00:59.638Z,1019.38
2023-05-14T02:02:00.022Z,1019.40
2023-05-14T02:03:00.337Z,1019.40
2023-05-14T02:04:00.661Z,1019.44
2023-05-14T02:05:01.014Z,1019.46
2023-05-14T02:06:01.331Z,1019.44
2023-05-14T02:07:01.679Z,1019.40
2023-05-14T02:08:02.056Z,1019.38
2023-05-14T02:09:02.417Z,1019.43
2023-05-14T02:10:02.797Z,1019.38
2023-05-14T02:11:03.120Z,1019.42
2023-05-14T02:12:03.467Z,1019.52
2023-05-14T02:13:03.861Z,1019.52
2023-05-14T02:14:04.221Z,1019.45
2023-05-14T02:15:04.563Z,1019.40
2023-05-14T02:16:04.971Z,1019.44
2023-05-14T02:17:05.298Z,1019.42
2023-05-14T02:18:05.680Z,1019.40
2023-05-14T02:19:06.057Z,1019.38
2023-05-14T02:20:06.402Z,1019.37
2023-05-14T02:21:06.800Z,1019.35
2023-05-14T02:22:07.140Z,1019.33
2023-05-14T02:23:07.488Z,1019.32
2023-05-14T02:24:07.876Z,1019.31
2023-05-14T02:25:08.250Z,1019.32
2023-05-14T02:26:08.580Z,1019.29
2023-05-14T02:27:08.956Z,1019.27
2023-05-14T02:28:09.334Z,1019.29
2023-05-14T02:29:09.662Z,1019.26
2023-05-14T02:30:10.135Z,1019.27
2023-05-14T02:31:10.495Z,1019.22
2023-05-14T02:32:10.879Z,1019.21
2023-05-14T02:33:11.289Z,1019.21
2023-05-14T02:34:11.534Z,1019.22
2023-05-14T02:35:11.943Z,1019.23
2023-05-14T02:36:12.252Z,1019.24
2023-05-14T02:37:12.530Z,1019.24
2023-05-14T02:38:12.758Z,1019.16
2023-05-14T02:39:13.060Z,1019.17
2023-05-14T02:40:13.376Z,1019.14
2023-05-14T02:41:13.619Z,1019.16
2023-05-14T02:42:13.923Z,1019.16
2023-05-14T02:43:14.336Z,1019.14
2023-05-14T02:44:14.573Z,1019.14
2023-05-14T02:45:14.869Z,1019.13
2023-05-14T02:46:15.198Z,1019.16
2023-05-14T02:47:15.394Z,1019.16
2023-05-14T02:48:15.672Z,1019.13
2023-05-14T02:49:15.990Z,1019.16
2023-05-14T02:50:16.322Z,1019.13
2023-05-14T02:51:16.511Z,1019.15
2023-05-14T02:52:16.797Z,1019.13
2023-05-14T02:53:17.139Z,1019.13
2023-05-14T02:54:17.427Z,1019.16
2023-05-14T02:55:17.561Z,1019.19
2023-05-14T02:56:17.796Z,1019.11
2023-05-14T02:57:18.131Z,1019.13
2023-05-14T02:58:18.395Z,1019.13
2023-05-14T02:59:18.564Z,1019.08
2023-05-14T03:00:18.883Z,1019.10
2023-05-14T03:01:19.211Z,1019.10
2023-05-14T03:02:19.496Z,1019.11
2023-05-14T03:03:19.736Z,1019.13
2023-05-14T03:04:20.002Z,1019.15
2023-05-14T03:05:20.273Z,1019.15
2023-05-14T03:06:20.567Z,1019.12
2023-05-14T03:07:20.869Z,1019.13
2023-05-14T03:08:21.141Z,1019.14
2023-05-14T03:09:21.422Z,1019.12
2023-05-14T03:10:22.041Z,1019.11
2023-05-14T03:11:21.892Z,1019.13
2023-05-14T03:12:22.148Z,1019.13
2023-05-14T03:13:22.322Z,1019.13
2023-05-14T03:14:22.609Z,1019.09
2023-05-14T03:15:22.823Z,1019.14
2023-05-14T03:16:23.090Z,1019.12
2023-05-14T03:17:23.354Z,1019.14
2023-05-14T03:18:23.605Z,1019.14
2023-05-14T03:19:23.952Z,1019.12
2023-05-14T03:20:24.362Z,1019.13
2023-05-14T03:21:24.243Z,1019.13
2023-05-14T03:22:24.568Z,1019.20
2023-05-14T03:23:24.713Z,1019.11
2023-05-14T03:24:24.901Z,1019.11
2023-05-14T03:25:25.071Z,1019.09
2023-05-14T03:26:25.248Z,1019.10
2023-05-14T03:27:25.417Z,1019.08
2023-05-14T03:28:25.595Z,1019.08
2023-05-14T03:29:25.774Z,1019.10
2023-05-14T03:30:26.242Z,1019.08
2023-05-14T03:31:26.284Z,1019.09
2023-05-14T03:32:26.306Z,1019.11
2023-05-14T03:33:26.465Z,1019.09
2023-05-14T03:34:26.761Z,1019.08
2023-05-14T03:35:26.930Z,1019.11
2023-05-14T03:36:27.070Z,1019.09
2023-05-14T03:37:27.250Z,1019.13
2023-05-14T03:38:27.448Z,1019.12
2023-05-14T03:39:27.592Z,1019.13
2023-05-14T03:40:27.787Z,1019.11
2023-05-14T03:41:27.922Z,1019.11
2023-05-14T03:42:28.143Z,1019.10
2023-05-14T03:43:28.269Z,1019.09
2023-05-14T03:44:28.435Z,1019.10
2023-05-14T03:45:28.666Z,1019.10
2023-05-14T03:46:28.776Z,1019.10
2023-05-14T03:47:28.976Z,1019.10
2023-05-14T03:48:29.192Z,1019.09
2023-05-14T03:49:29.297Z,1019.07
2023-05-14T03:50:29.585Z,1019.05
2023-05-14T03:51:29.654Z,1019.09
2023-05-14T03:52:29.976Z,1019.11
2023-05-14T03:53:30.092Z,1019.05
2023-05-14T03:54:30.269Z,1019.07
2023-05-14T03:55:30.618Z,1019.04
2023-05-14T03:56:30.872Z,1019.05
2023-05-14T03:57:31.036Z,1019.03
2023-05-14T03:58:31.201Z,1019.08
2023-05-14T03:59:31.372Z,1019.04
2023-05-14T04:00:31.599Z,1018.99
2023-05-14T04:01:31.742Z,1019.03
2023-05-14T04:02:32.023Z,1019.00
2023-05-14T04:03:32.465Z,1019.06
2023-05-14T04:04:32.453Z,1019.03
2023-05-14T04:05:32.720Z,1019.11
2023-05-14T04:06:32.885Z,1019.04
2023-05-14T04:07:33.182Z,1018.95
2023-05-14T04:08:33.357Z,1019.00
2023-05-14T04:09:33.656Z,1019.01
2023-05-14T04:10:33.867Z,1018.96
2023-05-14T04:11:34.039Z,1019.00
2023-05-14T04:12:34.358Z,1019.01
2023-05-14T04:13:34.553Z,1019.08
2023-05-14T04:14:34.706Z,1019.06
2023-05-14T04:15:35.039Z,1019.05
2023-05-14T04:16:35.243Z,1019.08
2023-05-14T04:17:35.440Z,1019.04
2023-05-14T04:18:35.629Z,1019.02
2023-05-14T04:19:35.771Z,1019.12
2023-05-14T04:20:35.998Z,1019.06
2023-05-14T04:21:36.164Z,1019.08
2023-05-14T04:22:36.444Z,1019.09
2023-05-14T04:23:36.551Z,1019.01
2023-05-14T04:24:36.711Z,1019.08
2023-05-14T04:25:36.934Z,1019.07
2023-05-14T04:26:37.109Z,1019.08
2023-05-14T04:27:37.268Z,1019.08
2023-05-14T04:28:37.461Z,1019.11
2023-05-14T04:29:37.658Z,1019.09
2023-05-14T04:30:37.883Z,1019.06
2023-05-14T04:31:38.061Z,1019.05
2023-05-14T04:32:38.277Z,1019.07
2023-05-14T04:33:38.386Z,1019.07
2023-05-14T04:34:38.568Z,1019.02
2023-05-14T04:35:38.761Z,1019.06
2023-05-14T04:36:38.924Z,1019.08
2023-05-14T04:37:39.129Z,1019.06
2023-05-14T04:38:39.315Z,1019.06
2023-05-14T04:39:39.520Z,1019.05
2023-05-14T04:40:39.720Z,1019.04
2023-05-14T04:41:39.915Z,1019.03
2023-05-14T04:42:40.068Z,1019.08
2023-05-14T04:43:40.274Z,1019.13
2023-05-14T04:44:40.504Z,1019.11
2023-05-14T04:45:40.716Z,1019.09
2023-05-14T04:46:40.840Z,1019.06
2023-05-14T04:47:41.010Z,1019.05
2023-05-14T04:48:41.184Z,1019.05
2023-05-14T04:49:41.421Z,1019.05
2023-05-14T04:50:41.590Z,1019.05
2023-05-14T04:51:41.730Z,1019.07
2023-05-14T04:52:41.922Z,1019.03
2023-05-14T04:53:42.127Z,1019.04
2023-05-14T04:54:42.331Z,1019.05
2023-05-14T04:55:42.496Z,1019.06
2023-05-14T04:56:42.653Z,1019.05
2023-05-14T04:57:42.856Z,1019.05
2023-05-14T04:58:43.056Z,1019.06
2023-05-14T04:59:43.405Z,1019.08
2023-05-14T05:00:43.452Z,1019.07
2023-05-14T05:01:43.671Z,1019.05
2023-05-14T05:02:43.879Z,1019.06
2023-05-14T05:03:44.042Z,1019.07
2023-05-14T05:04:44.192Z,1019.06
2023-05-14T05:05:44.384Z,1019.08
2023-05-14T05:06:44.549Z,1019.03
2023-05-14T05:07:44.741Z,1019.06
2023-05-14T05:08:44.937Z,1019.04
2023-05-14T05:09:45.134Z,1019.06
2023-05-14T05:10:45.385Z,1019.10
2023-05-14T05:11:45.513Z,1019.02
2023-05-14T05:12:45.696Z,1019.02
2023-05-14T05:13:45.911Z,1019.02
2023-05-14T05:14:46.074Z,1019.05
2023-05-14T05:15:46.323Z,1018.97
2023-05-14T05:16:46.453Z,1018.98
2023-05-14T05:17:46.723Z,1018.99
2023-05-14T05:18:46.897Z,1018.98
2023-05-14T05:19:47.090Z,1018.98
2023-05-14T05:20:47.244Z,1019.02
2023-05-14T05:21:47.475Z,1019.03
2023-05-14T05:22:47.579Z,1019.03
2023-05-14T05:23:47.760Z,1019.01
2023-05-14T05:24:49.754Z,1019.02
2023-05-14T05:25:48.129Z,1018.98
2023-05-14T05:26:48.284Z,1019.02
2023-05-14T05:27:48.498Z,1019.02
2023-05-14T05:28:48.659Z,1019.00
2023-05-14T05:29:48.894Z,1018.99
2023-05-14T05:30:49.065Z,1019.03
2023-05-14T05:31:49.378Z,1019.02
2023-05-14T05:32:49.429Z,1018.99
2023-05-14T05:33:49.591Z,1019.06
2023-05-14T05:34:49.791Z,1019.04
2023-05-14T05:35:50.020Z,1019.06
2023-05-14T05:36:50.233Z,1019.08
2023-05-14T05:37:50.354Z,1019.05
2023-05-14T05:38:50.534Z,1019.08
2023-05-14T05:39:50.751Z,1019.09
2023-05-14T05:40:50.981Z,1019.04
2023-05-14T05:41:51.131Z,1019.04
2023-05-14T05:42:51.291Z,1019.08
2023-05-14T05:43:51.526Z,1019.05
2023-05-14T05:44:51.663Z,1019.07
2023-05-14T05:45:51.893Z,1019.09
2023-05-14T05:46:52.078Z,1019.09
2023-05-14T05:47:52.262Z,1019.09
2023-05-14T05:48:52.442Z,1019.06
2023-05-14T05:49:52.634Z,1019.01
2023-05-14T05:50:52.868Z,1019.05
2023-05-14T05:51:52.986Z,1019.06
2023-05-14T05:52:53.185Z,1019.06
2023-05-14T05:53:53.381Z,1019.05
2023-05-14T05:54:53.678Z,1019.06
2023-05-14T05:55:53.792Z,1019.06
2023-05-14T05:56:53.958Z,1019.03
2023-05-14T05:57:54.180Z,1019.08
2023-05-14T05:58:54.319Z,1019.02
2023-05-14T05:59:54.493Z,1019.05
2023-05-14T06:00:54.674Z,1019.00
2023-05-14T06:01:54.905Z,1019.04
2023-05-14T06:02:55.077Z,1019.04
2023-05-14T06:03:55.222Z,1019.04
2023-05-14T06:04:55.478Z,1019.03
2023-05-14T06:05:55.625Z,1019.06
2023-05-14T06:06:55.778Z,1019.06
2023-05-14T06:07:55.986Z,1019.04
2023-05-14T06:08:56.187Z,1019.02
2023-05-14T06:09:56.370Z,1019.01
2023-05-14T06:10:56.583Z,1019.01
2023-05-14T06:11:56.730Z,1019.02
2023-05-14T06:12:56.927Z,1019.00
2023-05-14T06:13:57.118Z,1019.03
2023-05-14T06:14:57.334Z,1019.04
2023-05-14T06:15:57.525Z,1019.03
2023-05-14T06:16:57.764Z,1019.06
2023-05-14T06:17:57.896Z,1019.04
2023-05-14T06:18:58.063Z,1018.99
2023-05-14T06:19:58.246Z,1019.00
2023-05-14T06:20:58.440Z,1019.00
2023-05-14T06:21:58.599Z,1018.97
2023-05-14T06:22:58.798Z,1019.02
2023-05-14T06:23:58.963Z,1019.02
2023-05-14T06:24:59.156Z,1019.00
2023-05-14T06:25:59.371Z,1019.00
2023-05-14T06:26:59.527Z,1018.98
2023-05-14T06:27:59.731Z,1019.01
2023-05-14T06:28:59.912Z,1019.02
2023-05-14T06:30:00.156Z,1019.01
2023-05-14T06:31:00.312Z,1018.96
2023-05-14T06:32:00.629Z,1019.01
2023-05-14T06:33:00.682Z,1019.02
2023-05-14T06:34:00.828Z,1019.02
2023-05-14T06:35:01.035Z,1018.98
2023-05-14T06:36:01.343Z,1019.01
2023-05-14T06:37:01.399Z,1018.96
2023-05-14T06:38:01.594Z,1018.96
2023-05-14T06:39:01.775Z,1018.96
2023-05-14T06:40:01.996Z,1018.97
2023-05-14T06:41:02.226Z,1018.98
2023-05-14T06:42:02.331Z,1018.97
2023-05-14T06:43:02.531Z,1018.93
2023-05-14T06:44:02.691Z,1018.93
2023-05-14T06:45:02.891Z,1019.00
2023-05-14T06:46:03.125Z,1018.98
2023-05-14T06:47:03.269Z,1019.02
2023-05-14T06:48:03.513Z,1018.97
2023-05-14T06:49:03.669Z,1018.96
2023-05-14T06:50:03.818Z,1018.99
2023-05-14T06:51:04.041Z,1018.95
2023-05-14T06:52:04.205Z,1018.96
2023-05-14T06:53:04.403Z,1019.00
2023-05-14T06:54:04.578Z,1018.97
2023-05-14T06:55:04.783Z,1018.97
2023-05-14T06:56:04.929Z,1018.93
2023-05-14T06:57:05.110Z,1018.98
2023-05-14T06:58:05.318Z,1018.96
2023-05-14T06:59:05.504Z,1018.96
2023-05-14T07:00:05.671Z,1018.94
2023-05-14T07:01:05.907Z,1018.92
2023-05-14T07:02:06.057Z,1018.90
2023-05-14T07:03:06.312Z,1018.93
2023-05-14T07:04:06.485Z,1018.90
2023-05-14T07:05:06.629Z,1018.90
2023-05-14T07:06:06.843Z,1018.90
2023-05-14T07:07:07.007Z,1018.85
2023-05-14T07:08:07.191Z,1018.84
2023-05-14T07:09:07.368Z,1018.89
2023-05-14T07:10:07.543Z,1018.90
2023-05-14T07:11:07.759Z,1018.87
2023-05-14T07:12:07.896Z,1018.84
2023-05-14T07:13:08.070Z,1018.83
2023-05-14T07:14:08.256Z,1018.79
2023-05-14T07:15:08.419Z,1018.81
2023-05-14T07:16:08.641Z,1018.82
2023-05-14T07:17:08.804Z,1018.81
2023-05-14T07:18:09.055Z,1018.81
2023-05-14T07:19:09.209Z,1018.80
2023-05-14T07:20:09.381Z,1018.81
2023-05-14T07:21:09.581Z,1018.81
2023-05-14T07:22:09.747Z,1018.75
2023-05-14T07:23:09.922Z,1018.73
2023-05-14T07:24:10.138Z,1018.67
2023-05-14T07:25:10.310Z,1018.69
2023-05-14T07:26:10.532Z,1018.67
2023-05-14T07:27:10.662Z,1018.65
2023-05-14T07:28:10.849Z,1018.69
2023-05-14T07:29:11.025Z,1018.70
2023-05-14T07:30:11.199Z,1018.67
2023-05-14T07:31:11.433Z,1018.67
2023-05-14T07:32:13.967Z,1018.71
2023-05-14T07:33:11.791Z,1018.68
2023-05-14T07:34:11.972Z,1018.72
2023-05-14T07:35:12.148Z,1018.69
2023-05-14T07:36:12.345Z,1018.67
2023-05-14T07:37:12.532Z,1018.63
2023-05-14T07:38:12.716Z,1018.59
2023-05-14T07:39:12.886Z,1018.65
2023-05-14T07:40:13.071Z,1018.62
2023-05-14T07:41:13.267Z,1018.61
2023-05-14T07:42:21.801Z,1018.64
2023-05-14T07:43:13.644Z,1018.63
2023-05-14T07:44:13.854Z,1018.60
2023-05-14T07:45:13.998Z,1018.61
2023-05-14T07:46:14.239Z,1018.58
2023-05-14T07:47:14.439Z,1018.60
2023-05-14T07:48:14.798Z,1018.58
2023-05-14T07:49:14.774Z,1018.56
2023-05-14T07:50:14.967Z,1018.61
2023-05-14T07:51:15.186Z,1018.58
2023-05-14T07:52:15.322Z,1018.59
2023-05-14T07:53:15.501Z,1018.55
2023-05-14T07:54:15.686Z,1018.57
2023-05-14T07:55:15.857Z,1018.57
2023-05-14T07:56:16.094Z,1018.54
2023-05-14T07:57:16.262Z,1018.53
2023-05-14T07:58:16.433Z,1018.58
2023-05-14T07:59:16.608Z,1018.51
2023-05-14T08:00:16.820Z,1018.56
2023-05-14T08:01:16.990Z,1018.53
2023-05-14T08:02:17.446Z,1018.54
2023-05-14T08:03:17.429Z,1018.51
2023-05-14T08:04:17.613Z,1018.48
2023-05-14T08:05:17.735Z,1018.49
2023-05-14T08:06:17.938Z,1018.55
2023-05-14T08:07:18.120Z,1018.54
2023-05-14T08:08:18.299Z,1018.49
2023-05-14T08:09:18.530Z,1018.51
2023-05-14T08:10:18.693Z,1018.50
2023-05-14T08:11:18.996Z,1018.50
2023-05-14T08:12:19.091Z,1018.52
2023-05-14T08:13:19.269Z,1018.50
2023-05-14T08:14:19.476Z,1018.49
2023-05-14T08:15:19.663Z,1018.44
2023-05-14T08:16:19.910Z,1018.50
2023-05-14T08:17:20.033Z,1018.49
2023-05-14T08:18:20.226Z,1018.44
2023-05-14T08:19:20.430Z,1018.49
2023-05-14T08:20:20.635Z,1018.48
2023-05-14T08:21:20.837Z,1018.46
2023-05-14T08:22:21.018Z,1018.39
2023-05-14T08:23:21.218Z,1018.44
2023-05-14T08:24:21.403Z,1018.36
2023-05-14T08:25:21.632Z,1018.35
2023-05-14T08:26:21.832Z,1018.34
2023-05-14T08:27:21.993Z,1018.35
2023-05-14T08:28:22.199Z,1018.40
2023-05-14T08:29:22.424Z,1018.36
2023-05-14T08:30:23.061Z,1018.33
2023-05-14T08:31:22.920Z,1018.33
2023-05-14T08:32:24.150Z,1018.36
2023-05-14T08:33:23.180Z,1018.34
2023-05-14T08:34:23.381Z,1018.35
2023-05-14T08:35:23.586Z,1018.34
2023-05-14T08:36:23.795Z,1018.33
2023-05-14T08:37:24.005Z,1018.28
2023-05-14T08:38:24.196Z,1018.30
2023-05-14T08:39:24.392Z,1018.26
2023-05-14T08:40:24.773Z,1018.27
2023-05-14T08:41:24.783Z,1018.26
2023-05-14T08:42:24.980Z,1018.25
2023-05-14T08:43:25.163Z,1018.23
2023-05-14T08:44:25.352Z,1018.24
2023-05-14T08:45:25.554Z,1018.24
2023-05-14T08:46:25.778Z,1018.18
2023-05-14T08:47:26.003Z,1018.16
2023-05-14T08:48:26.247Z,1018.15
2023-05-14T08:49:26.343Z,1018.13
2023-05-14T08:50:26.687Z,1018.15
2023-05-14T08:51:26.783Z,1018.13
2023-05-14T08:52:26.931Z,1018.09
2023-05-14T08:53:27.114Z,1018.16
2023-05-14T08:54:27.316Z,1018.13
2023-05-14T08:55:27.502Z,1018.09
2023-05-14T08:56:27.725Z,1018.08
2023-05-14T08:57:27.894Z,1018.08
2023-05-14T08:58:28.076Z,1018.05
2023-05-14T08:59:28.283Z,1018.07
2023-05-14T09:00:28.528Z,1018.07
2023-05-14T09:01:28.781Z,1018.05
2023-05-14T09:02:28.882Z,1018.11
2023-05-14T09:03:29.203Z,1018.05
2023-05-14T09:04:29.244Z,1018.03
2023-05-14T09:05:29.451Z,1018.07
2023-05-14T09:06:29.682Z,1018.04
2023-05-14T09:07:29.849Z,1018.01
2023-05-14T09:08:30.065Z,1018.01
2023-05-14T09:09:30.242Z,1018.01
2023-05-14T09:10:30.462Z,1018.02
2023-05-14T09:11:30.663Z,1018.05
2023-05-14T09:12:30.836Z,1018.06
2023-05-14T09:13:31.029Z,1018.08
2023-05-14T09:14:31.199Z,1018.02
2023-05-14T09:15:31.422Z,1018.02
2023-05-14T09:16:31.632Z,1017.96
2023-05-14T09:17:31.828Z,1017.97
2023-05-14T09:18:32.028Z,1017.97
2023-05-14T09:19:32.164Z,1017.98
2023-05-14T09:20:32.386Z,1017.95
2023-05-14T09:21:33.603Z,1017.89
2023-05-14T09:22:32.759Z,1017.88
2023-05-14T09:23:33.011Z,1017.86
2023-05-14T09:24:33.206Z,1017.90
2023-05-14T09:25:33.387Z,1017.88
2023-05-14T09:26:33.623Z,1017.86
2023-05-14T09:27:33.871Z,1017.92
2023-05-14T09:28:34.003Z,1017.93
2023-05-14T09:29:34.249Z,1017.89
2023-05-14T09:30:34.420Z,1017.97
2023-05-14T09:31:34.655Z,1017.98
2023-05-14T09:32:34.843Z,1017.94
2023-05-14T09:33:35.027Z,1018.00
2023-05-14T09:34:35.266Z,1017.82
2023-05-14T09:35:35.433Z,1017.87
2023-05-14T09:36:35.647Z,1017.77
2023-05-14T09:37:35.838Z,1017.74
2023-05-14T09:38:36.046Z,1017.84
2023-05-14T09:39:36.283Z,1017.95
2023-05-14T09:40:36.468Z,1017.76
2023-05-14T09:41:36.727Z,1017.73
2023-05-14T09:42:36.866Z,1017.75
2023-05-14T09:43:37.079Z,1017.75
2023-05-14T09:44:37.317Z,1017.82
2023-05-14T09:45:37.503Z,1017.87
2023-05-14T09:46:37.726Z,1017.72
2023-05-14T09:47:37.968Z,1017.68
2023-05-14T09:48:38.178Z,1017.72
2023-05-14T09:49:38.299Z,1017.71
2023-05-14T09:50:38.493Z,1017.78
2023-05-14T09:51:38.730Z,1017.79
2023-05-14T09:52:38.916Z,1017.79
2023-05-14T09:53:39.113Z,1017.71
2023-05-14T09:54:39.362Z,1017.69
2023-05-14T09:55:39.523Z,1017.70
2023-05-14T09:56:39.735Z,1017.75
2023-05-14T09:57:39.942Z,1017.76
2023-05-14T09:58:40.153Z,1017.87
2023-05-14T09:59:40.363Z,1017.70
2023-05-14T10:00:40.568Z,1017.79
2023-05-14T10:01:40.829Z,1017.71
2023-05-14T10:02:41.152Z,1017.77
2023-05-14T10:03:41.188Z,1017.72
2023-05-14T10:04:41.447Z,1017.75
2023-05-14T10:05:41.575Z,1017.65
2023-05-14T10:06:41.847Z,1017.70
2023-05-14T10:07:42.019Z,1017.76
2023-05-14T10:08:42.175Z,1017.72
2023-05-14T10:09:42.396Z,1017.52
2023-05-14T10:10:42.589Z,1017.53
2023-05-14T10:11:42.806Z,1017.50
2023-05-14T10:12:42.982Z,1017.68
2023-05-14T10:13:43.199Z,1017.66
2023-05-14T10:14:43.414Z,1017.65
2023-05-14T10:15:43.619Z,1017.64
2023-05-14T10:16:43.865Z,1017.61
2023-05-14T10:17:44.113Z,1017.55
2023-05-14T10:18:44.260Z,1017.55
2023-05-14T10:19:44.448Z,1017.58
2023-05-14T10:20:44.650Z,1017.57
2023-05-14T10:21:44.851Z,1017.47
2023-05-14T10:22:45.036Z,1017.54
2023-05-14T10:23:45.235Z,1017.58
2023-05-14T10:24:45.460Z,1017.56
2023-05-14T10:25:45.640Z,1017.37
2023-05-14T10:26:45.866Z,1017.50
2023-05-14T10:27:46.058Z,1017.66
2023-05-14T10:28:46.232Z,1017.55
2023-05-14T10:29:46.424Z,1017.41
2023-05-14T10:30:46.737Z,1017.40
2023-05-14T10:31:47.082Z,1017.60
2023-05-14T10:32:47.041Z,1017.52
2023-05-14T10:33:47.181Z,1017.24
2023-05-14T10:34:47.374Z,1017.26
2023-05-14T10:35:47.588Z,1017.36
2023-05-14T10:36:47.802Z,1017.36
2023-05-14T10:37:48.015Z,1017.45
2023-05-14T10:38:48.225Z,1017.42
2023-05-14T10:39:48.452Z,1017.35
2023-05-14T10:40:48.635Z,1017.43
2023-05-14T10:41:48.852Z,1017.27
2023-05-14T10:42:49.078Z,1017.31
2023-05-14T10:43:49.293Z,1017.20
2023-05-14T10:44:49.539Z,1017.26
2023-05-14T10:45:49.713Z,1017.26
2023-05-14T10:46:49.957Z,1017.01
2023-05-14T10:47:50.165Z,1017.20
2023-05-14T10:48:50.325Z,1017.26
2023-05-14T10:49:50.539Z,1017.03
2023-05-14T10:50:50.755Z,1016.93
2023-05-14T10:51:50.897Z,1016.79
2023-05-14T10:52:51.127Z,1016.76
2023-05-14T10:53:51.307Z,1016.69
2023-05-14T10:54:51.537Z,1016.69
2023-05-14T10:55:51.683Z,1016.59
2023-05-14T10:56:51.871Z,1016.53
2023-05-14T10:57:52.051Z,1016.49
2023-05-14T10:58:52.254Z,1016.51
2023-05-14T10:59:52.458Z,1016.31
2023-05-14T11:00:52.597Z,1016.36
2023-05-14T11:01:52.862Z,1016.42
2023-05-14T11:02:53.083Z,1016.78
2023-05-14T11:03:53.336Z,1016.88
2023-05-14T11:04:53.445Z,1016.69
2023-05-14T11:05:53.641Z,1016.69
2023-05-14T11:06:53.862Z,1016.64
2023-05-14T11:07:54.002Z,1016.35
2023-05-14T11:08:54.213Z,1016.63
2023-05-14T11:09:54.492Z,1016.73
2023-05-14T11:10:54.626Z,1016.60
2023-05-14T11:11:54.848Z,1016.45
2023-05-14T11:12:55.096Z,1016.65
2023-05-14T11:13:55.281Z,1016.75
2023-05-14T11:14:55.502Z,1016.89
2023-05-14T11:15:55.710Z,1017.06
2023-05-14T11:16:55.935Z,1017.00
2023-05-14T11:17:56.124Z,1016.83
2023-05-14T11:18:56.277Z,1016.57
2023-05-14T11:19:56.493Z,1016.69
2023-05-14T11:20:56.739Z,1016.69
2023-05-14T11:21:56.904Z,1016.76
2023-05-14T11:22:57.109Z,1016.87
2023-05-14T11:23:57.331Z,1016.86
2023-05-14T11:24:57.568Z,1016.91
2023-05-14T11:25:57.733Z,1016.92
2023-05-14T11:26:57.897Z,1016.95
2023-05-14T11:27:58.090Z,1016.99
2023-05-14T11:28:58.262Z,1016.92
2023-05-14T11:29:58.471Z,1016.92
2023-05-14T11:30:58.648Z,1016.95
2023-05-14T11:31:58.860Z,1017.00
2023-05-14T11:33:01.764Z,1016.97
2023-05-14T11:33:59.237Z,1017.00
2023-05-14T11:34:59.449Z,1017.01
2023-05-14T11:35:59.593Z,1016.82
2023-05-14T11:36:59.778Z,1016.79
2023-05-14T11:37:59.974Z,1016.81
2023-05-14T11:39:00.191Z,1016.78
2023-05-14T11:40:00.358Z,1016.78
2023-05-14T11:41:00.550Z,1016.73
2023-05-14T11:42:00.749Z,1016.78
2023-05-14T11:43:00.924Z,1016.75
2023-05-14T11:44:01.114Z,1016.80
2023-05-14T11:45:01.333Z,1016.79
2023-05-14T11:46:01.529Z,1016.79
2023-05-14T11:47:01.699Z,1016.80
2023-05-14T11:48:01.954Z,1016.79
2023-05-14T11:49:02.081Z,1016.77
2023-05-14T11:50:02.304Z,1016.73
2023-05-14T11:51:02.455Z,1016.69
2023-05-14T11:52:02.661Z,1016.63
2023-05-14T11:53:02.893Z,1016.64
2023-05-14T11:54:03.076Z,1016.63
2023-05-14T11:55:03.355Z,1016.60
2023-05-14T11:56:03.486Z,1016.56
2023-05-14T11:57:03.690Z,1016.57
2023-05-14T11:58:03.890Z,1016.57
2023-05-14T11:59:04.119Z,1016.56
2023-05-14T12:00:04.443Z,1016.60
2023-05-14T12:01:04.500Z,1016.57
2023-05-14T12:02:04.753Z,1016.57
2023-05-14T12:03:04.981Z,1016.53
2023-05-14T12:04:05.190Z,1016.53
2023-05-14T12:05:05.306Z,1016.54
2023-05-14T12:06:05.490Z,1016.56
2023-05-14T12:07:05.653Z,1016.49
2023-05-14T12:08:05.869Z,1016.48